AirNav   Duncan Aviation - Near you to keep you flying
 
 1714 users online  

06R Grawunder Field Airport
Bellville, Texas, USA

GOING TO BELLVILLE?


FAA INFORMATION EFFECTIVE 21 APRIL 2022

Location

FAA Identifier: 06R
Lat/Long: 29-56-27.5000N 096-14-42.9000W
29-56.458333N 096-14.715000W
29.9409722,-96.2452500
(estimated)
Elevation: 292 ft. / 89.0 m (surveyed)
SOUTH END OF RWY ELEV 45 FT LWR THAN NORTH END.
Variation: 06E (1985)
From city: 1 mile SE of BELLVILLE, TX
Time zone: UTC -5 (UTC -6 during Standard Time)
Zip code: 77418

Airport Operations

Airport use: Open to the public
Activation date: 11/2000
Control tower: no
ARTCC: HOUSTON CENTER
FSS: MONTGOMERY COUNTY FLIGHT SERVICE STATION
NOTAMs facility: CXO (NOTAM-D service available)
Attendance: UNATNDD
Wind indicator: lighted
Segmented circle: yes
Lights: SS-SR

Airport Communications

CTAF/UNICOM: 123.0
WX AWOS-3 at 11R (18 nm N): 121.125 (979-836-2303)
WX AWOS-3 at TME (20 nm SE): 119.525 (281-945-5451)

Nearby radio navigation aids

VOR radial/distance  VOR name  Freq  Var
IDUr085/16.5INDUSTRY VORTAC110.2008E
ELAr005/17.1EAGLE LAKE VOR/DME116.4008E
TNVr197/23.0NAVASOTA VOR/DME115.9008E

Airport Services

Parking: hangars and tiedowns
Airframe service: NONE
Powerplant service: NONE
Bottled oxygen: NONE
Bulk oxygen: NONE

Runway Information

Runway 15/33

Dimensions: 2480 x 30 ft. / 756 x 9 m
Surface: asphalt, in poor condition
EXTENSIVE CRACKING.
Weight bearing capacity: 
Single wheel: 4.0
Runway edge lights: non-standard
NONSTD LIRL. NORTH 135 FT & SOUTH 126 FT UNLGTD. NO THR LGTS.
RUNWAY 15  RUNWAY 33
Latitude: 29-56.648002N29-56.268882N
Longitude: 096-14.804042W096-14.627080W
Elevation: 292.0 ft.236.0 ft.
Traffic pattern: leftright
Runway heading: 152 magnetic, 158 true332 magnetic, 338 true
Obstructions: 38 ft. tree, 201 ft. from runway, 20 ft. left of centerline
+6 FT FENCE AT THR 50 FT RIGHT OF CNTRLN, 6 FT FENCE 110 FT FM THR ON CNTRLN, 25 FT TREE, 0 FT DSTC, 124 FT L.
50 ft. trees, 201 ft. from runway, 100 ft. both sides of centerline
+35 FT TREES AT THR 100 FT L & R OF CNTRLN; +2 FT FENCE 50 FT L & R OF CNTRLN AT THR.

Airport Ownership and Management from official FAA records

Ownership: Privately-owned
Owner: CITY OF BELLVILLE
30 S. HOLLAND ST
BELLVILLE, TX 77418
Phone 979-865-3136
ARPT LEASED FROM GRAWUNDER FAMILY.
Manager: JOE MONTEZ
30 S. HOLLAND STREET
BELLVILLE, TX 77418
Phone 979-865-3136

Airport Operational Statistics

Aircraft based on the field: 6
Single engine airplanes: 6
    
Aircraft operations: avg 25/month *
67% local general aviation
33% transient general aviation
* for 12-month period ending 28 April 2020

Additional Remarks

2 FT ELECTRIC FENCE AROUND RWY FOR CATTLE GUARD.
RWY 15 THR RELCTD 135 FT FOR NGT OPNS; RWY 33 THR RELCTD 126 FT FOR NGT OPNS. 2219 FT OF RWY LGTD AT NGT.
RWY 15/33 UNMKD.
PRIM SFC OBSTD BY 20-35 FT TREES AT AER 33, 65 FT WEST OF CNTRLN, FROM THR TO 250 FT AND 90 FT EAST OF CNTRLN FROM THR TO 400 FT.
FOR CD CTC HOUSTON APCH AT 281-443-5844 TO CNL IFR CALL 281-443-5888.
SKYDIVING, ULTRALIGHTS, RC MODEL ACFT PROHIBITED.
COURTESY CAR AVBL BY CALLING 832-797-3903 OR 281-468-4297.

Instrument Procedures

There are no published instrument procedures at 06R.

Some nearby airports with instrument procedures:

11R - Brenham Municipal Airport (18 nm N)
KTME - Houston Executive Airport (20 nm SE)
KELA - Eagle Lake Airport (21 nm S)
60R - Navasota Municipal Airport (26 nm N)
KIWS - West Houston Airport (31 nm E)
 
Loc | Ops | Rwys | IFR | FBO | Links
Com | Nav | Svcs | Stats | Notes
Area around 06R (Grawunder Field Airport)
 
Road maps at: MapQuest Bing Google
 
Aerial photo
WARNING: Photo may not be current or correct
Aerial photo of 06R (Grawunder Field Airport)
Do you have a better or more recent aerial photo of Grawunder Field Airport that you would like to share? If so, please send us your photo.

 
Sectional chart

 
Airport distance calculator
Flying to Grawunder Field Airport? Find the distance to fly.

From to 06R

Sunrise and sunset
Times for 17-May-2022
 Local
(UTC-5)
 Zulu
(UTC)
Morning civil twilight06:0511:05
Sunrise06:3111:31
Sunset20:1101:11
Evening civil twilight20:3801:38

Current date and time
Zulu (UTC)  17-May-2022 20:54:34
Local (UTC-5)  17-May-2022 15:54:34
 
METAR
K11R 
18nm N 
172035Z AUTO 20013G16KT 150V210 10SM CLR 34/20 A2994 RMK AO2 T03400199
KTME 
20nm SE 
172035Z AUTO 18014KT 8SM CLR 34/20 A2995 RMK AO2
KELA 
21nm S 
172035Z AUTO 19014G18KT 10SM CLR 34/19 A2994 RMK AO2 T03420187
K66R 
23nm SW 
172035Z AUTO 16010G15KT 10SM CLR 33/20 A2995 RMK AO2 T03330201
TAF
KSGR 
37nm SE 
171725Z 1718/1818 16010KT P6SM SKC FM180200 17008KT P6SM FEW015 FEW250 FM181100 18005KT 4SM BR BKN015 FM181600 19015G21KT P6SM SCT015
KCLL 
39nm N 
171725Z 1718/1818 15012KT P6SM SKC FM180200 17007KT P6SM SCT250 FM181200 18008KT P6SM BKN015 FM181600 19017G23KT P6SM BKN250
NOTAMs
Click for the latest NOTAMs
NOTAMs are issued by the DoD/FAA and will open in a separate window not controlled by AirNav.

 

 
 

Where to Eat: Catering, Restaurants, Food shops

  
 Business Name 
 
 Contact 
 
 Services / Description 
 
Distance
 
Comments
  
Newman's Bakery 979-865-9804
no information available

If you are affiliated with Newman's Bakery and would like to show here your services, contact info, web link, logo, and more, click here
0.5 miles  
   write
 

Would you like to see your business listed on this page?

 If your business provides an interesting product or service to pilots, flight crews, aircraft, or users of the Grawunder Field Airport, you should consider listing it here.  To start the listing process, click on the button below
 
Add a business
 

Other Pages about Grawunder Field Airport

Update a link
 
Copyright © AirNav, LLC. All rights reserved. Privacy Policy  Contact